Aviation Digital Data Service (ADDS)

Output produced by TAFs form (1515 UTC 29 May 2017)
found at http://www.aviationweather.gov/adds/tafs/
 
KSBY 291139Z 2912/3012 34005KT 6SM BR OVC003 
     FM291300 33004KT P6SM OVC003 
     FM291500 33004KT P6SM OVC006 
     FM291700 32006KT P6SM BKN020 
     FM291900 06006KT P6SM BKN040 
     FM300300 09006KT P6SM BKN200